createdAt,value
2023-04-05T00:02:54.645Z,-1.90
2023-04-05T00:05:54.670Z,-2.00
2023-04-05T00:08:51.563Z,-2.00
2023-04-05T00:11:48.705Z,-2.00
2023-04-05T00:14:46.125Z,-2.10
2023-04-05T00:17:43.945Z,-2.00
2023-04-05T00:20:41.062Z,-2.00
2023-04-05T00:23:39.871Z,-2.10
2023-04-05T00:26:36.768Z,-2.10
2023-04-05T00:29:34.185Z,-2.20
2023-04-05T00:32:31.135Z,-2.10
2023-04-05T00:35:28.836Z,-2.10
2023-04-05T00:38:25.714Z,-2.10
2023-04-05T00:41:22.550Z,-2.20
2023-04-05T00:44:19.401Z,-2.30
2023-04-05T00:47:16.238Z,-2.30
2023-04-05T00:50:13.486Z,-2.40
2023-04-05T00:53:10.652Z,-2.30
2023-04-05T00:56:08.889Z,-2.30
2023-04-05T00:59:05.832Z,-2.30
2023-04-05T01:02:31.809Z,-2.30
2023-04-05T01:06:18.705Z,-2.40
2023-04-05T01:09:47.871Z,-2.40
2023-04-05T01:12:45.506Z,-2.40
2023-04-05T01:15:42.463Z,-2.30
2023-04-05T01:18:40.746Z,-2.30
2023-04-05T01:21:40.116Z,-2.30
2023-04-05T01:24:57.909Z,-2.40
2023-04-05T01:28:31.405Z,-2.40
2023-04-05T01:32:00.698Z,-2.50
2023-04-05T01:35:17.878Z,-2.40
2023-04-05T01:38:22.253Z,-2.30
2023-04-05T01:41:19.111Z,-2.40
2023-04-05T01:44:16.306Z,-2.40
2023-04-05T01:47:13.267Z,-2.60
2023-04-05T01:50:10.620Z,-2.60
2023-04-05T01:53:08.389Z,-2.60
2023-04-05T01:56:05.705Z,-2.60
2023-04-05T01:59:02.697Z,-2.60
2023-04-05T02:01:59.594Z,-2.70
2023-04-05T02:04:56.422Z,-2.70
2023-04-05T02:07:53.312Z,-2.70
2023-04-05T02:10:52.501Z,-2.70
2023-04-05T02:13:49.342Z,-2.70
2023-04-05T02:16:46.744Z,-2.70
2023-04-05T02:19:46.268Z,-2.70
2023-04-05T02:22:45.247Z,-2.70
2023-04-05T02:25:42.337Z,-2.70
2023-04-05T02:28:39.191Z,-2.80
2023-04-05T02:31:36.094Z,-2.90
2023-04-05T02:34:33.721Z,-2.80
2023-04-05T02:37:30.897Z,-2.80
2023-04-05T02:40:27.795Z,-2.80
2023-04-05T02:43:24.648Z,-2.80
2023-04-05T02:46:21.607Z,-2.80
2023-04-05T02:49:18.581Z,-2.80
2023-04-05T02:52:16.262Z,-2.90
2023-04-05T02:55:13.105Z,-2.90
2023-04-05T02:58:09.956Z,-2.90
2023-04-05T03:01:07.352Z,-2.90
2023-04-05T03:04:04.323Z,-2.90
2023-04-05T03:07:04.917Z,-2.90
2023-04-05T03:10:02.597Z,-2.90
2023-04-05T03:12:59.435Z,-3.00
2023-04-05T03:15:56.300Z,-3.00
2023-04-05T03:18:53.257Z,-3.00
2023-04-05T03:21:50.385Z,-2.90
2023-04-05T03:24:47.806Z,-3.00
2023-04-05T03:27:45.937Z,-3.00
2023-04-05T03:30:42.772Z,-3.10
2023-04-05T03:33:39.654Z,-3.10
2023-04-05T03:36:42.651Z,-3.10
2023-04-05T03:39:39.542Z,-3.20
2023-04-05T03:42:36.381Z,-3.20
2023-04-05T03:45:33.835Z,-3.20
2023-04-05T03:48:30.778Z,-3.20
2023-04-05T03:51:28.064Z,-3.20
2023-04-05T03:54:24.946Z,-3.20
2023-04-05T03:57:22.289Z,-3.20
2023-04-05T04:00:19.990Z,-3.20
2023-04-05T04:03:16.804Z,-3.20
2023-04-05T04:06:14.355Z,-3.20
2023-04-05T04:09:12.199Z,-3.10
2023-04-05T04:12:09.052Z,-3.10
2023-04-05T04:15:06.981Z,-3.00
2023-04-05T04:18:04.238Z,-3.20
2023-04-05T04:21:06.880Z,-3.20
2023-04-05T04:24:04.038Z,-3.20
2023-04-05T04:27:00.865Z,-3.10
2023-04-05T04:30:04.520Z,-3.10
2023-04-05T04:33:06.656Z,-3.20
2023-04-05T04:36:09.403Z,-3.30
2023-04-05T04:39:06.380Z,-3.30
2023-04-05T04:42:04.126Z,-3.30
2023-04-05T04:45:02.694Z,-3.30
2023-04-05T04:47:59.932Z,-3.40
2023-04-05T04:50:57.405Z,-3.40
2023-04-05T04:53:54.193Z,-3.40
2023-04-05T04:56:51.055Z,-3.30
2023-04-05T04:59:47.886Z,-3.30
2023-04-05T05:02:44.845Z,-3.30
2023-04-05T05:05:51.648Z,-3.40
2023-04-05T05:08:49.098Z,-3.30
2023-04-05T05:11:46.060Z,-3.30
2023-04-05T05:14:42.992Z,-3.30
2023-04-05T05:17:39.976Z,-3.20
2023-04-05T05:20:37.402Z,-3.20
2023-04-05T05:23:34.273Z,-3.00
2023-04-05T05:26:31.114Z,-3.00
2023-04-05T05:29:28.041Z,-3.00
2023-04-05T05:32:24.897Z,-3.10
2023-04-05T05:35:21.732Z,-3.00
2023-04-05T05:38:18.901Z,-3.10
2023-04-05T05:41:15.853Z,-3.00
2023-04-05T05:44:13.430Z,-3.00
2023-04-05T05:47:10.350Z,-3.00
2023-04-05T05:50:09.110Z,-2.90
2023-04-05T05:53:06.199Z,-2.90
2023-04-05T05:56:03.363Z,-2.90
2023-04-05T05:59:01.714Z,-2.90
2023-04-05T06:01:58.645Z,-2.80
2023-04-05T06:04:55.665Z,-2.70
2023-04-05T06:07:52.891Z,-2.70
2023-04-05T06:10:51.026Z,-2.60
2023-04-05T06:13:47.873Z,-2.50
2023-04-05T06:16:44.954Z,-2.50
2023-04-05T06:19:41.843Z,-2.40
2023-04-05T06:22:41.234Z,-2.40
2023-04-05T06:25:38.259Z,-2.30
2023-04-05T06:28:35.440Z,-2.20
2023-04-05T06:31:34.828Z,-2.10
2023-04-05T06:34:31.924Z,-2.00
2023-04-05T06:37:28.801Z,-1.90
2023-04-05T06:40:25.953Z,-1.70
2023-04-05T06:43:22.817Z,-1.60
2023-04-05T06:46:19.742Z,-1.50
2023-04-05T06:49:16.700Z,-1.40
2023-04-05T06:52:13.519Z,-1.40
2023-04-05T06:55:10.504Z,-1.30
2023-04-05T06:58:07.328Z,-1.20
2023-04-05T07:01:04.995Z,-1.10
2023-04-05T07:04:02.103Z,-1.00
2023-04-05T07:07:02.403Z,-0.90
2023-04-05T07:09:59.622Z,-0.80
2023-04-05T07:12:56.551Z,-0.70
2023-04-05T07:16:00.423Z,-0.70
2023-04-05T07:18:57.905Z,-0.70
2023-04-05T07:21:57.150Z,-0.60
2023-04-05T07:24:55.533Z,-0.50
2023-04-05T07:27:52.768Z,-0.40
2023-04-05T07:30:49.933Z,-0.20
2023-04-05T07:33:46.767Z,-0.10
2023-04-05T07:36:43.571Z,0.00
2023-04-05T07:39:40.508Z,0.20
2023-04-05T07:42:37.661Z,0.40
2023-04-05T07:45:34.504Z,0.70
2023-04-05T07:48:31.477Z,0.80
2023-04-05T07:51:28.395Z,1.00
2023-04-05T07:54:25.368Z,1.10
2023-04-05T07:57:22.532Z,1.40
2023-04-05T08:00:20.428Z,1.60
2023-04-05T08:03:17.502Z,1.70
2023-04-05T08:06:19.230Z,1.80
2023-04-05T08:09:16.089Z,1.90
2023-04-05T08:12:12.914Z,2.90
2023-04-05T08:15:10.502Z,3.00
2023-04-05T08:18:07.371Z,3.20
2023-04-05T08:21:04.335Z,3.30
2023-04-05T08:24:01.238Z,3.30
2023-04-05T08:26:58.098Z,3.20
2023-04-05T08:29:54.892Z,3.10
2023-04-05T08:32:51.776Z,3.10
2023-04-05T08:35:48.677Z,3.10
2023-04-05T08:38:45.630Z,3.10
2023-04-05T08:42:02.191Z,3.10
2023-04-05T08:45:03.315Z,3.20
2023-04-05T08:48:00.259Z,3.30
2023-04-05T08:50:57.108Z,3.30
2023-04-05T08:53:54.665Z,3.30
2023-04-05T08:56:54.542Z,3.20
2023-04-05T08:59:52.902Z,3.30
2023-04-05T09:02:54.750Z,3.30
2023-04-05T09:05:53.624Z,3.50
2023-04-05T09:08:50.570Z,3.60
2023-04-05T09:11:48.444Z,3.70
2023-04-05T09:14:46.378Z,3.70
2023-04-05T09:17:44.032Z,3.90
2023-04-05T09:20:41.099Z,4.10
2023-04-05T09:23:50.755Z,4.00
2023-04-05T09:26:47.639Z,3.80
2023-04-05T09:29:47.590Z,3.90
2023-04-05T09:32:47.910Z,4.00
2023-04-05T09:35:45.054Z,4.10
2023-04-05T09:38:44.746Z,4.10
2023-04-05T09:41:41.907Z,4.30
2023-04-05T09:44:55.049Z,4.30
2023-04-05T09:47:58.111Z,4.30
2023-04-05T09:51:12.682Z,4.30
2023-04-05T09:54:11.368Z,4.30
2023-04-05T09:57:10.361Z,4.40
2023-04-05T10:00:20.698Z,4.50
2023-04-05T10:03:17.800Z,4.40
2023-04-05T10:06:16.723Z,4.40
2023-04-05T10:09:15.224Z,6.10
2023-04-05T10:12:28.447Z,7.50
2023-04-05T10:15:26.919Z,7.80
2023-04-05T10:18:29.794Z,8.20
2023-04-05T10:21:33.688Z,10.10
2023-04-05T10:24:59.986Z,11.60
2023-04-05T10:28:06.403Z,11.50
2023-04-05T10:31:37.079Z,10.80
2023-04-05T10:34:51.255Z,9.50
2023-04-05T10:38:20.039Z,9.60
2023-04-05T10:41:17.442Z,9.60
2023-04-05T10:44:25.745Z,10.40
2023-04-05T10:47:28.227Z,11.60
2023-04-05T10:50:25.856Z,11.40
2023-04-05T10:53:23.415Z,11.60
2023-04-05T10:56:21.518Z,11.50
2023-04-05T10:59:19.021Z,11.20
2023-04-05T11:02:16.907Z,12.40
2023-04-05T11:05:37.769Z,13.30
2023-04-05T11:08:35.549Z,13.00
2023-04-05T11:11:46.344Z,12.40
2023-04-05T11:14:44.535Z,11.80
2023-04-05T11:17:41.467Z,12.40
2023-04-05T11:20:51.598Z,13.60
2023-04-05T11:24:11.829Z,12.80
2023-04-05T11:27:10.213Z,13.20
2023-04-05T11:30:07.766Z,12.40
2023-04-05T11:33:08.601Z,12.40
2023-04-05T11:36:05.632Z,13.00
2023-04-05T11:39:23.420Z,12.80
2023-04-05T11:42:21.814Z,13.10
2023-04-05T11:45:19.664Z,13.30
2023-04-05T11:48:17.782Z,13.60
2023-04-05T11:51:16.080Z,12.20
2023-04-05T11:54:12.919Z,13.10
2023-04-05T11:57:14.027Z,13.20
2023-04-05T12:00:18.652Z,13.30
2023-04-05T12:03:17.254Z,14.00
2023-04-05T12:06:14.115Z,13.60
2023-04-05T12:09:11.048Z,13.50
2023-04-05T12:12:17.256Z,13.30
2023-04-05T12:15:17.675Z,13.50
2023-04-05T12:18:15.522Z,14.00
2023-04-05T12:21:12.512Z,13.10
2023-04-05T12:24:09.627Z,13.10
2023-04-05T12:27:06.817Z,14.30
2023-04-05T12:30:08.510Z,15.00
2023-04-05T12:33:11.936Z,14.20
2023-04-05T12:36:09.279Z,14.50
2023-04-05T12:39:08.729Z,14.30
2023-04-05T12:42:05.856Z,13.90
2023-04-05T12:45:05.281Z,14.20
2023-04-05T12:48:02.302Z,15.10
2023-04-05T12:51:05.016Z,14.80
2023-04-05T12:54:04.219Z,14.70
2023-04-05T12:57:04.484Z,13.40
2023-04-05T13:00:01.477Z,12.20
2023-04-05T13:02:59.736Z,11.20
2023-04-05T13:05:57.014Z,10.80
2023-04-05T13:08:53.925Z,11.10
2023-04-05T13:11:51.532Z,11.20
2023-04-05T13:14:48.476Z,10.50
2023-04-05T13:17:49.912Z,11.60
2023-04-05T13:20:47.121Z,12.80
2023-04-05T13:23:43.954Z,13.80
2023-04-05T13:26:40.840Z,13.60
2023-04-05T13:29:37.651Z,13.20
2023-04-05T13:32:34.755Z,11.30
2023-04-05T13:35:31.968Z,10.70
2023-04-05T13:38:28.842Z,11.00
2023-04-05T13:41:26.032Z,13.10
2023-04-05T13:44:23.398Z,14.20
2023-04-05T13:47:20.358Z,14.30
2023-04-05T13:50:17.218Z,13.80
2023-04-05T13:53:14.193Z,12.00
2023-04-05T13:56:11.078Z,10.90
2023-04-05T13:59:08.063Z,11.40
2023-04-05T14:02:05.043Z,11.40
2023-04-05T14:05:02.102Z,12.10
2023-04-05T14:07:58.930Z,12.20
2023-04-05T14:10:55.955Z,12.20
2023-04-05T14:13:52.844Z,12.10
2023-04-05T14:16:49.673Z,13.50
2023-04-05T14:19:46.633Z,14.20
2023-04-05T14:22:43.494Z,14.90
2023-04-05T14:25:40.609Z,15.00
2023-04-05T14:28:37.745Z,15.90
2023-04-05T14:31:34.781Z,16.00
2023-04-05T14:34:31.692Z,15.60
2023-04-05T14:37:28.701Z,15.90
2023-04-05T14:40:25.685Z,15.10
2023-04-05T14:43:25.801Z,15.50
2023-04-05T14:46:23.552Z,15.70
2023-04-05T14:49:20.561Z,15.50
2023-04-05T14:52:17.533Z,15.60
2023-04-05T14:55:14.870Z,15.40
2023-04-05T14:58:13.775Z,15.30
2023-04-05T15:01:11.403Z,15.50
2023-04-05T15:04:09.456Z,15.80
2023-04-05T15:07:06.406Z,14.60
2023-04-05T15:10:04.195Z,14.20
2023-04-05T15:13:01.245Z,14.20
2023-04-05T15:15:58.061Z,14.90
2023-04-05T15:18:55.583Z,15.20
2023-04-05T15:21:52.455Z,14.90
2023-04-05T15:24:49.481Z,15.30
2023-04-05T15:27:46.379Z,14.30
2023-04-05T15:30:44.861Z,14.60
2023-04-05T15:33:41.693Z,14.30
2023-04-05T15:36:38.554Z,14.10
2023-04-05T15:39:35.380Z,14.70
2023-04-05T15:42:34.470Z,14.20
2023-04-05T15:45:31.775Z,13.30
2023-04-05T15:48:28.604Z,13.80
2023-04-05T15:51:25.630Z,14.30
2023-04-05T15:54:22.459Z,13.40
2023-04-05T15:57:19.751Z,13.00
2023-04-05T16:00:17.026Z,13.30
2023-04-05T16:03:14.609Z,13.00
2023-04-05T16:06:11.587Z,13.80
2023-04-05T16:09:08.457Z,13.50
2023-04-05T16:12:05.528Z,13.30
2023-04-05T16:15:02.493Z,13.30
2023-04-05T16:17:59.440Z,13.20
2023-04-05T16:20:57.382Z,12.80
2023-04-05T16:23:56.772Z,12.40
2023-04-05T16:26:53.718Z,12.20
2023-04-05T16:29:50.593Z,12.00
2023-04-05T16:32:49.628Z,11.60
2023-04-05T16:35:46.503Z,11.90
2023-04-05T16:38:45.027Z,11.50
2023-04-05T16:41:43.021Z,11.90
2023-04-05T16:44:39.941Z,11.50
2023-04-05T16:47:37.587Z,11.20
2023-04-05T16:50:34.614Z,11.10
2023-04-05T16:53:31.512Z,11.00
2023-04-05T16:56:28.840Z,10.20
2023-04-05T16:59:25.863Z,10.40
2023-04-05T17:02:22.876Z,10.20
2023-04-05T17:05:19.702Z,10.60
2023-04-05T17:08:16.521Z,10.40
2023-04-05T17:11:13.405Z,10.40
2023-04-05T17:14:10.306Z,10.20
2023-04-05T17:17:07.111Z,10.00
2023-04-05T17:20:04.544Z,9.50
2023-04-05T17:23:01.446Z,9.20
2023-04-05T17:25:58.254Z,9.00
2023-04-05T17:28:55.073Z,8.70
2023-04-05T17:31:51.872Z,8.50
2023-04-05T17:34:48.676Z,8.80
2023-04-05T17:37:46.680Z,8.80
2023-04-05T17:40:43.544Z,8.40
2023-04-05T17:43:40.533Z,8.40
2023-04-05T17:46:42.627Z,8.50
2023-04-05T17:49:41.539Z,7.60
2023-04-05T17:52:38.376Z,7.80
2023-04-05T17:55:35.253Z,8.00
2023-04-05T17:58:32.552Z,7.70
2023-04-05T18:01:29.521Z,7.10
2023-04-05T18:04:26.880Z,7.00
2023-04-05T18:07:23.752Z,7.00
2023-04-05T18:10:21.226Z,7.10
2023-04-05T18:13:19.445Z,7.00
2023-04-05T18:16:16.586Z,7.30
2023-04-05T18:19:13.513Z,7.20
2023-04-05T18:22:10.592Z,6.50
2023-04-05T18:25:09.150Z,6.30
2023-04-05T18:28:19.295Z,6.80
2023-04-05T18:31:18.945Z,7.00
2023-04-05T18:34:16.336Z,6.80
2023-04-05T18:37:13.173Z,6.90
2023-04-05T18:40:10.543Z,6.70
2023-04-05T18:43:07.573Z,6.50
2023-04-05T18:46:04.602Z,6.60
2023-04-05T18:49:01.462Z,6.20
2023-04-05T18:51:58.353Z,5.80
2023-04-05T18:54:58.440Z,5.70
2023-04-05T18:57:55.327Z,5.50
2023-04-05T19:00:52.798Z,5.40
2023-04-05T19:03:50.488Z,5.50
2023-04-05T19:06:47.361Z,5.40
2023-04-05T19:09:44.291Z,5.20
2023-04-05T19:12:41.324Z,5.10
2023-04-05T19:15:38.524Z,4.90
2023-04-05T19:18:35.605Z,4.70
2023-04-05T19:21:32.592Z,4.70
2023-04-05T19:24:29.420Z,4.60
2023-04-05T19:27:30.813Z,4.70
2023-04-05T19:30:27.636Z,4.70
2023-04-05T19:33:24.456Z,4.60
2023-04-05T19:36:21.293Z,4.70
2023-04-05T19:39:18.143Z,4.70
2023-04-05T19:42:14.958Z,4.80
2023-04-05T19:45:13.702Z,4.90
2023-04-05T19:48:36.894Z,4.80
2023-04-05T19:51:33.768Z,4.50
2023-04-05T19:54:30.605Z,4.30
2023-04-05T19:57:28.676Z,4.00
2023-04-05T20:00:42.760Z,3.80
2023-04-05T20:03:41.309Z,3.60
2023-04-05T20:06:38.983Z,3.40
2023-04-05T20:09:38.625Z,3.40
2023-04-05T20:12:35.521Z,3.30
2023-04-05T20:15:37.387Z,3.20
2023-04-05T20:18:34.305Z,3.10
2023-04-05T20:21:31.238Z,3.20
2023-04-05T20:24:28.694Z,3.10
2023-04-05T20:27:25.529Z,2.90
2023-04-05T20:30:22.339Z,2.80
2023-04-05T20:33:47.181Z,2.70
2023-04-05T20:36:49.493Z,2.50
2023-04-05T20:39:46.314Z,2.30
2023-04-05T20:42:43.189Z,2.20
2023-04-05T20:45:40.106Z,2.20
2023-04-05T20:48:37.462Z,2.10
2023-04-05T20:51:34.392Z,2.20
2023-04-05T20:54:31.586Z,1.90
2023-04-05T20:57:29.410Z,1.80
2023-04-05T21:00:26.212Z,1.70
2023-04-05T21:03:23.454Z,1.60
2023-04-05T21:06:20.508Z,1.60
2023-04-05T21:09:17.399Z,1.30
2023-04-05T21:12:14.210Z,1.40
2023-04-05T21:15:11.116Z,1.50
2023-04-05T21:18:08.441Z,1.40
2023-04-05T21:21:05.730Z,1.30
2023-04-05T21:24:02.591Z,1.20
2023-04-05T21:26:59.402Z,1.10
2023-04-05T21:29:56.278Z,1.10
2023-04-05T21:32:54.052Z,1.00
2023-04-05T21:35:51.194Z,1.00
2023-04-05T21:38:48.086Z,0.90
2023-04-05T21:41:44.938Z,0.70
2023-04-05T21:44:41.755Z,0.90
2023-04-05T21:47:38.728Z,1.00
2023-04-05T21:50:35.743Z,0.80
2023-04-05T21:53:32.626Z,0.80
2023-04-05T21:56:29.444Z,0.90
2023-04-05T21:59:26.300Z,0.90
2023-04-05T22:02:23.215Z,0.90
2023-04-05T22:05:34.042Z,0.90
2023-04-05T22:08:34.360Z,0.80
2023-04-05T22:11:31.366Z,0.70
2023-04-05T22:14:28.528Z,0.60
2023-04-05T22:17:25.575Z,0.60
2023-04-05T22:20:22.453Z,0.60
2023-04-05T22:23:19.262Z,0.60
2023-04-05T22:26:16.084Z,0.50
2023-04-05T22:29:13.000Z,0.40
2023-04-05T22:32:10.044Z,0.20
2023-04-05T22:35:07.437Z,0.20
2023-04-05T22:38:04.456Z,0.20
2023-04-05T22:41:01.381Z,0.10
2023-04-05T22:43:58.240Z,0.20
2023-04-05T22:46:55.035Z,0.30
2023-04-05T22:49:52.340Z,0.20
2023-04-05T22:52:49.220Z,0.20
2023-04-05T22:55:46.068Z,0.20
2023-04-05T22:58:42.892Z,0.20
2023-04-05T23:01:39.847Z,0.20
2023-04-05T23:04:36.777Z,0.10
2023-04-05T23:07:33.670Z,0.00
2023-04-05T23:10:30.570Z,-0.10
2023-04-05T23:13:27.509Z,-0.10
2023-04-05T23:16:24.480Z,-0.10
2023-04-05T23:19:21.482Z,-0.10
2023-04-05T23:22:18.270Z,-0.20
2023-04-05T23:25:15.093Z,-0.20
2023-04-05T23:28:11.906Z,-0.20
2023-04-05T23:31:08.841Z,-0.30
2023-04-05T23:34:05.789Z,-0.30
2023-04-05T23:37:02.585Z,-0.30
2023-04-05T23:39:59.400Z,-0.40
2023-04-05T23:42:56.410Z,-0.50
2023-04-05T23:45:53.250Z,-0.50
2023-04-05T23:48:51.072Z,-0.40
2023-04-05T23:51:47.909Z,-0.50
2023-04-05T23:54:44.731Z,-0.50
2023-04-05T23:57:41.684Z,-0.50
